sensor_id;sensor_type;location;lat;lon;timestamp;pressure;altitude;pressure_sealevel;temperature;humidity
15263;BME280;7733;51.554;13.590;2023-04-21T00:00:06;100751.03;;;12.13;82.72
15263;BME280;7733;51.554;13.590;2023-04-21T00:02:34;100748.50;;;12.07;83.11
15263;BME280;7733;51.554;13.590;2023-04-21T00:05:08;100751.31;;;11.93;82.74
15263;BME280;7733;51.554;13.590;2023-04-21T00:07:36;100752.09;;;12.00;82.51
15263;BME280;7733;51.554;13.590;2023-04-21T00:10:05;100749.53;;;11.94;83.25
15263;BME280;7733;51.554;13.590;2023-04-21T00:12:32;100751.22;;;11.99;82.32
15263;BME280;7733;51.554;13.590;2023-04-21T00:14:57;100748.53;;;12.04;81.38
15263;BME280;7733;51.554;13.590;2023-04-21T00:17:23;100743.59;;;11.76;82.21
15263;BME280;7733;51.554;13.590;2023-04-21T00:19:49;100744.53;;;11.72;82.17
15263;BME280;7733;51.554;13.590;2023-04-21T00:22:14;100748.09;;;11.68;82.02
15263;BME280;7733;51.554;13.590;2023-04-21T00:24:41;100745.44;;;11.71;81.10
15263;BME280;7733;51.554;13.590;2023-04-21T00:27:07;100749.03;;;11.66;81.55
15263;BME280;7733;51.554;13.590;2023-04-21T00:29:32;100748.19;;;11.64;81.69
15263;BME280;7733;51.554;13.590;2023-04-21T00:31:58;100749.25;;;11.46;82.91
15263;BME280;7733;51.554;13.590;2023-04-21T00:34:25;100743.09;;;11.50;83.53
15263;BME280;7733;51.554;13.590;2023-04-21T00:36:50;100738.81;;;11.40;84.68
15263;BME280;7733;51.554;13.590;2023-04-21T00:39:16;100735.19;;;11.50;84.34
15263;BME280;7733;51.554;13.590;2023-04-21T00:41:42;100731.53;;;11.65;83.76
15263;BME280;7733;51.554;13.590;2023-04-21T00:44:08;100734.19;;;11.60;84.05
15263;BME280;7733;51.554;13.590;2023-04-21T00:46:35;100732.50;;;11.54;84.18
15263;BME280;7733;51.554;13.590;2023-04-21T00:49:06;100733.41;;;11.52;84.44
15263;BME280;7733;51.554;13.590;2023-04-21T00:51:35;100729.88;;;11.54;84.67
15263;BME280;7733;51.554;13.590;2023-04-21T00:54:05;100726.38;;;11.55;84.66
15263;BME280;7733;51.554;13.590;2023-04-21T00:56:34;100724.72;;;11.48;84.95
15263;BME280;7733;51.554;13.590;2023-04-21T00:59:00;100722.09;;;11.47;85.53
15263;BME280;7733;51.554;13.590;2023-04-21T01:01:31;100722.84;;;11.56;85.00
15263;BME280;7733;51.554;13.590;2023-04-21T01:03:58;100720.28;;;11.52;85.17
15263;BME280;7733;51.554;13.590;2023-04-21T01:06:29;100713.25;;;11.54;85.15
15263;BME280;7733;51.554;13.590;2023-04-21T01:08:57;100715.84;;;11.55;85.16
15263;BME280;7733;51.554;13.590;2023-04-21T01:11:23;100713.38;;;11.45;85.65
15263;BME280;7733;51.554;13.590;2023-04-21T01:13:52;100714.38;;;11.33;86.08
15263;BME280;7733;51.554;13.590;2023-04-21T01:16:19;100713.28;;;11.51;84.96
15263;BME280;7733;51.554;13.590;2023-04-21T01:18:46;100712.38;;;11.53;84.16
15263;BME280;7733;51.554;13.590;2023-04-21T01:21:12;100720.34;;;11.47;84.46
15263;BME280;7733;51.554;13.590;2023-04-21T01:23:39;100716.91;;;11.41;85.23
15263;BME280;7733;51.554;13.590;2023-04-21T01:26:05;100712.31;;;11.58;83.97
15263;BME280;7733;51.554;13.590;2023-04-21T01:28:31;100720.44;;;11.38;84.88
15263;BME280;7733;51.554;13.590;2023-04-21T01:30:57;100715.16;;;11.40;85.38
15263;BME280;7733;51.554;13.590;2023-04-21T01:33:23;100717.19;;;11.16;86.72
15263;BME280;7733;51.554;13.590;2023-04-21T01:35:49;100712.94;;;11.08;88.13
15263;BME280;7733;51.554;13.590;2023-04-21T01:38:15;100715.34;;;11.27;86.77
15263;BME280;7733;51.554;13.590;2023-04-21T01:40:50;100710.16;;;11.21;87.24
15263;BME280;7733;51.554;13.590;2023-04-21T01:43:19;100709.22;;;11.27;87.08
15263;BME280;7733;51.554;13.590;2023-04-21T01:45:46;100702.19;;;11.29;86.57
15263;BME280;7733;51.554;13.590;2023-04-21T01:48:12;100701.28;;;11.32;86.94
15263;BME280;7733;51.554;13.590;2023-04-21T01:50:38;100700.34;;;11.34;86.13
15263;BME280;7733;51.554;13.590;2023-04-21T01:53:04;100700.31;;;11.39;85.82
15263;BME280;7733;51.554;13.590;2023-04-21T01:55:30;100700.56;;;11.17;86.96
15263;BME280;7733;51.554;13.590;2023-04-21T01:57:56;100698.78;;;11.19;87.43
15263;BME280;7733;51.554;13.590;2023-04-21T02:00:24;100696.06;;;11.28;86.55
15263;BME280;7733;51.554;13.590;2023-04-21T02:02:50;100699.47;;;11.35;85.73
15263;BME280;7733;51.554;13.590;2023-04-21T02:05:16;100697.66;;;11.42;85.58
15263;BME280;7733;51.554;13.590;2023-04-21T02:07:41;100700.53;;;11.19;87.42
15263;BME280;7733;51.554;13.590;2023-04-21T02:10:08;100698.81;;;11.16;86.76
15263;BME280;7733;51.554;13.590;2023-04-21T02:12:33;100697.94;;;11.17;87.22
15263;BME280;7733;51.554;13.590;2023-04-21T02:14:59;100698.94;;;11.07;87.60
15263;BME280;7733;51.554;13.590;2023-04-21T02:17:25;100693.84;;;10.92;89.01
15263;BME280;7733;51.554;13.590;2023-04-21T02:19:50;100696.31;;;11.07;87.81
15263;BME280;7733;51.554;13.590;2023-04-21T02:22:16;100693.75;;;11.03;88.50
15263;BME280;7733;51.554;13.590;2023-04-21T02:24:42;100690.22;;;11.04;88.17
15263;BME280;7733;51.554;13.590;2023-04-21T02:27:08;100699.72;;;11.15;87.71
15263;BME280;7733;51.554;13.590;2023-04-21T02:29:34;100702.28;;;11.21;87.18
15263;BME280;7733;51.554;13.590;2023-04-21T02:32:00;100690.84;;;11.25;86.69
15263;BME280;7733;51.554;13.590;2023-04-21T02:34:25;100699.97;;;10.91;88.17
15263;BME280;7733;51.554;13.590;2023-04-21T02:36:51;100699.66;;;11.18;86.61
15263;BME280;7733;51.554;13.590;2023-04-21T02:39:17;100702.50;;;11.00;87.37
15263;BME280;7733;51.554;13.590;2023-04-21T02:41:42;100691.44;;;10.71;89.56
15263;BME280;7733;51.554;13.590;2023-04-21T02:44:08;100703.53;;;10.85;89.46
15263;BME280;7733;51.554;13.590;2023-04-21T02:46:34;100695.47;;;11.04;87.61
15263;BME280;7733;51.554;13.590;2023-04-21T02:48:59;100698.34;;;10.79;88.98
15263;BME280;7733;51.554;13.590;2023-04-21T02:51:25;100705.94;;;11.07;87.41
15263;BME280;7733;51.554;13.590;2023-04-21T02:53:51;100699.00;;;11.00;87.37
15263;BME280;7733;51.554;13.590;2023-04-21T02:56:17;100694.75;;;10.88;88.62
15263;BME280;7733;51.554;13.590;2023-04-21T02:58:43;100703.25;;;11.13;86.47
15263;BME280;7733;51.554;13.590;2023-04-21T03:01:08;100696.34;;;11.04;86.27
15263;BME280;7733;51.554;13.590;2023-04-21T03:03:34;100693.03;;;10.87;87.47
15263;BME280;7733;51.554;13.590;2023-04-21T03:06:04;100698.06;;;11.07;86.21
15263;BME280;7733;51.554;13.590;2023-04-21T03:08:30;100696.38;;;10.98;86.27
15263;BME280;7733;51.554;13.590;2023-04-21T03:10:56;100699.16;;;10.87;86.94
15263;BME280;7733;51.554;13.590;2023-04-21T03:13:23;100689.59;;;10.82;87.93
15263;BME280;7733;51.554;13.590;2023-04-21T03:15:49;100689.63;;;10.76;87.71
15263;BME280;7733;51.554;13.590;2023-04-21T03:18:16;100690.56;;;10.70;88.25
15263;BME280;7733;51.554;13.590;2023-04-21T03:20:42;100692.31;;;10.71;88.21
15263;BME280;7733;51.554;13.590;2023-04-21T03:23:08;100690.50;;;10.76;87.72
15263;BME280;7733;51.554;13.590;2023-04-21T03:25:34;100690.69;;;10.56;89.22
15263;BME280;7733;51.554;13.590;2023-04-21T03:28:00;100687.88;;;10.76;87.46
15263;BME280;7733;51.554;13.590;2023-04-21T03:30:26;100689.66;;;10.73;87.12
15263;BME280;7733;51.554;13.590;2023-04-21T03:32:52;100689.66;;;10.74;87.22
15263;BME280;7733;51.554;13.590;2023-04-21T03:35:20;100688.84;;;10.68;87.46
15263;BME280;7733;51.554;13.590;2023-04-21T03:37:46;100683.50;;;10.75;87.06
15263;BME280;7733;51.554;13.590;2023-04-21T03:40:14;100694.97;;;10.68;87.73
15263;BME280;7733;51.554;13.590;2023-04-21T03:42:40;100691.38;;;10.77;87.23
15263;BME280;7733;51.554;13.590;2023-04-21T03:45:08;100687.84;;;10.78;86.32
15263;BME280;7733;51.554;13.590;2023-04-21T03:47:35;100686.22;;;10.68;86.24
15263;BME280;7733;51.554;13.590;2023-04-21T03:50:05;100689.75;;;10.60;86.38
15263;BME280;7733;51.554;13.590;2023-04-21T03:52:31;100688.81;;;10.71;86.21
15263;BME280;7733;51.554;13.590;2023-04-21T03:54:57;100683.66;;;10.61;86.24
15263;BME280;7733;51.554;13.590;2023-04-21T03:57:23;100682.72;;;10.67;86.18
15263;BME280;7733;51.554;13.590;2023-04-21T03:59:49;100690.66;;;10.58;86.65
15263;BME280;7733;51.554;13.590;2023-04-21T04:02:14;100688.06;;;10.56;86.62
15263;BME280;7733;51.554;13.590;2023-04-21T04:04:40;100689.75;;;10.63;85.91
15263;BME280;7733;51.554;13.590;2023-04-21T04:07:06;100699.44;;;10.55;86.80
15263;BME280;7733;51.554;13.590;2023-04-21T04:09:33;100701.19;;;10.55;86.24
15263;BME280;7733;51.554;13.590;2023-04-21T04:11:59;100700.41;;;10.47;85.48
15263;BME280;7733;51.554;13.590;2023-04-21T04:14:24;100696.06;;;10.44;85.37
15263;BME280;7733;51.554;13.590;2023-04-21T04:16:50;100695.97;;;10.52;84.85
15263;BME280;7733;51.554;13.590;2023-04-21T04:19:16;100696.91;;;10.46;85.32
15263;BME280;7733;51.554;13.590;2023-04-21T04:21:41;100703.06;;;10.44;84.77
15263;BME280;7733;51.554;13.590;2023-04-21T04:24:07;100704.94;;;10.26;85.25
15263;BME280;7733;51.554;13.590;2023-04-21T04:26:33;100696.22;;;10.24;88.04
15263;BME280;7733;51.554;13.590;2023-04-21T04:29:00;100703.97;;;10.35;86.85
15263;BME280;7733;51.554;13.590;2023-04-21T04:31:30;100705.84;;;10.21;86.67
15263;BME280;7733;51.554;13.590;2023-04-21T04:33:57;100700.50;;;10.33;87.08
15263;BME280;7733;51.554;13.590;2023-04-21T04:36:23;100704.13;;;10.14;89.00
15263;BME280;7733;51.554;13.590;2023-04-21T04:38:50;100704.88;;;10.32;87.26
15263;BME280;7733;51.554;13.590;2023-04-21T04:41:16;100698.00;;;10.13;87.54
15263;BME280;7733;51.554;13.590;2023-04-21T04:43:42;100705.72;;;10.36;86.23
15263;BME280;7733;51.554;13.590;2023-04-21T04:46:08;100704.00;;;10.33;86.08
15263;BME280;7733;51.554;13.590;2023-04-21T04:48:37;100703.19;;;10.18;88.62
15263;BME280;7733;51.554;13.590;2023-04-21T04:51:04;100705.69;;;10.42;87.38
15263;BME280;7733;51.554;13.590;2023-04-21T04:53:30;100702.25;;;10.34;88.01
15263;BME280;7733;51.554;13.590;2023-04-21T04:55:58;100707.56;;;10.25;88.90
15263;BME280;7733;51.554;13.590;2023-04-21T04:58:24;100708.44;;;10.21;90.16
15263;BME280;7733;51.554;13.590;2023-04-21T05:00:49;100705.84;;;10.15;91.06
15263;BME280;7733;51.554;13.590;2023-04-21T05:03:15;100700.38;;;10.48;89.36
15263;BME280;7733;51.554;13.590;2023-04-21T05:05:41;100706.44;;;10.53;89.37
15263;BME280;7733;51.554;13.590;2023-04-21T05:08:07;100707.19;;;10.71;88.00
15263;BME280;7733;51.554;13.590;2023-04-21T05:10:33;100709.00;;;10.59;88.85
15263;BME280;7733;51.554;13.590;2023-04-21T05:12:59;100705.47;;;10.66;89.08
15263;BME280;7733;51.554;13.590;2023-04-21T05:15:24;100709.84;;;10.68;89.34
15263;BME280;7733;51.554;13.590;2023-04-21T05:17:50;100709.72;;;10.77;88.72
15263;BME280;7733;51.554;13.590;2023-04-21T05:20:16;100714.25;;;10.64;90.20
15263;BME280;7733;51.554;13.590;2023-04-21T05:22:42;100717.56;;;10.83;89.88
15263;BME280;7733;51.554;13.590;2023-04-21T05:25:10;100715.84;;;10.79;90.33
15263;BME280;7733;51.554;13.590;2023-04-21T05:27:44;100716.50;;;10.99;89.35
15263;BME280;7733;51.554;13.590;2023-04-21T05:30:10;100718.13;;;11.11;88.98
15263;BME280;7733;51.554;13.590;2023-04-21T05:32:36;100719.22;;;10.90;90.29
15263;BME280;7733;51.554;13.590;2023-04-21T05:35:02;100720.88;;;11.00;90.59
15263;BME280;7733;51.554;13.590;2023-04-21T05:37:28;100725.25;;;11.03;89.92
15263;BME280;7733;51.554;13.590;2023-04-21T05:39:54;100725.84;;;11.27;89.05
15263;BME280;7733;51.554;13.590;2023-04-21T05:42:19;100718.81;;;11.30;88.89
15263;BME280;7733;51.554;13.590;2023-04-21T05:44:46;100723.16;;;11.31;89.12
15263;BME280;7733;51.554;13.590;2023-04-21T05:47:12;100720.25;;;11.55;87.70
15263;BME280;7733;51.554;13.590;2023-04-21T05:49:37;100717.53;;;11.59;87.88
15263;BME280;7733;51.554;13.590;2023-04-21T05:52:03;100715.91;;;11.52;88.50
15263;BME280;7733;51.554;13.590;2023-04-21T05:54:29;100718.41;;;11.60;88.12
15263;BME280;7733;51.554;13.590;2023-04-21T05:56:55;100714.91;;;11.63;87.48
15263;BME280;7733;51.554;13.590;2023-04-21T05:59:21;100711.81;;;11.98;85.87
15263;BME280;7733;51.554;13.590;2023-04-21T06:01:47;100708.19;;;12.06;85.60
15263;BME280;7733;51.554;13.590;2023-04-21T06:04:12;100708.13;;;12.11;85.78
15263;BME280;7733;51.554;13.590;2023-04-21T06:06:38;100707.28;;;12.09;86.05
15263;BME280;7733;51.554;13.590;2023-04-21T06:09:04;100702.94;;;12.06;86.15
15263;BME280;7733;51.554;13.590;2023-04-21T06:11:30;100704.47;;;12.18;85.79
15263;BME280;7733;51.554;13.590;2023-04-21T06:13:55;100709.50;;;12.35;85.63
15263;BME280;7733;51.554;13.590;2023-04-21T06:16:24;100702.38;;;12.41;84.78
15263;BME280;7733;51.554;13.590;2023-04-21T06:18:49;100701.03;;;12.14;85.77
15263;BME280;7733;51.554;13.590;2023-04-21T06:21:15;100692.84;;;12.34;85.80
15263;BME280;7733;51.554;13.590;2023-04-21T06:23:41;100696.44;;;12.29;85.32
15263;BME280;7733;51.554;13.590;2023-04-21T06:26:07;100700.78;;;12.31;85.20
15263;BME280;7733;51.554;13.590;2023-04-21T06:28:35;100689.91;;;12.53;84.53
15263;BME280;7733;51.554;13.590;2023-04-21T06:31:02;100684.84;;;12.40;84.96
15263;BME280;7733;51.554;13.590;2023-04-21T06:33:29;100681.88;;;12.59;84.49
15263;BME280;7733;51.554;13.590;2023-04-21T06:35:55;100683.50;;;12.67;84.30
15263;BME280;7733;51.554;13.590;2023-04-21T06:38:21;100676.34;;;12.74;83.88
15263;BME280;7733;51.554;13.590;2023-04-21T06:40:48;100684.88;;;12.88;83.66
15263;BME280;7733;51.554;13.590;2023-04-21T06:43:14;100680.22;;;13.01;83.32
15263;BME280;7733;51.554;13.590;2023-04-21T06:45:39;100683.53;;;13.12;82.49
15263;BME280;7733;51.554;13.590;2023-04-21T06:48:05;100685.72;;;13.36;82.09
15263;BME280;7733;51.554;13.590;2023-04-21T06:50:31;100689.94;;;12.99;83.02
15263;BME280;7733;51.554;13.590;2023-04-21T06:52:56;100683.44;;;13.17;82.20
15263;BME280;7733;51.554;13.590;2023-04-21T06:55:22;100683.25;;;13.29;82.09
15263;BME280;7733;51.554;13.590;2023-04-21T06:57:48;100678.50;;;13.46;81.61
15263;BME280;7733;51.554;13.590;2023-04-21T07:00:14;100683.94;;;13.37;80.76
15263;BME280;7733;51.554;13.590;2023-04-21T07:02:40;100681.19;;;13.43;81.38
15263;BME280;7733;51.554;13.590;2023-04-21T07:05:06;100664.72;;;13.72;80.62
15263;BME280;7733;51.554;13.590;2023-04-21T07:07:33;100671.44;;;13.87;79.45
15263;BME280;7733;51.554;13.590;2023-04-21T07:09:59;100674.19;;;13.82;78.12
15263;BME280;7733;51.554;13.590;2023-04-21T07:12:25;100667.34;;;13.74;78.39
15263;BME280;7733;51.554;13.590;2023-04-21T07:14:50;100671.22;;;13.96;78.18
15263;BME280;7733;51.554;13.590;2023-04-21T07:17:16;100661.50;;;13.98;77.69
15263;BME280;7733;51.554;13.590;2023-04-21T07:19:42;100672.72;;;14.08;78.16
15263;BME280;7733;51.554;13.590;2023-04-21T07:22:07;100673.41;;;14.14;78.03
15263;BME280;7733;51.554;13.590;2023-04-21T07:24:33;100677.47;;;14.29;77.50
15263;BME280;7733;51.554;13.590;2023-04-21T07:27:00;100674.91;;;14.26;76.08
15263;BME280;7733;51.554;13.590;2023-04-21T07:29:27;100668.41;;;14.39;76.49
15263;BME280;7733;51.554;13.590;2023-04-21T07:31:54;100668.09;;;14.53;75.38
15263;BME280;7733;51.554;13.590;2023-04-21T07:34:20;100673.06;;;14.65;74.44
15263;BME280;7733;51.554;13.590;2023-04-21T07:36:46;100675.94;;;14.56;73.92
15263;BME280;7733;51.554;13.590;2023-04-21T07:39:12;100667.88;;;14.60;73.43
15263;BME280;7733;51.554;13.590;2023-04-21T07:41:38;100666.38;;;14.84;72.49
15263;BME280;7733;51.554;13.590;2023-04-21T07:44:04;100666.72;;;15.05;73.36
15263;BME280;7733;51.554;13.590;2023-04-21T07:46:30;100668.84;;;15.23;73.52
15263;BME280;7733;51.554;13.590;2023-04-21T07:48:58;100668.75;;;15.26;72.26
15263;BME280;7733;51.554;13.590;2023-04-21T07:51:25;100674.28;;;15.17;71.49
15263;BME280;7733;51.554;13.590;2023-04-21T07:53:54;100668.47;;;15.35;71.47
15263;BME280;7733;51.554;13.590;2023-04-21T07:56:20;100665.78;;;15.37;69.04
15263;BME280;7733;51.554;13.590;2023-04-21T07:58:46;100665.31;;;15.52;69.74
15263;BME280;7733;51.554;13.590;2023-04-21T08:01:12;100666.13;;;15.85;69.71
15263;BME280;7733;51.554;13.590;2023-04-21T08:03:38;100664.59;;;15.76;69.15
15263;BME280;7733;51.554;13.590;2023-04-21T08:06:04;100662.50;;;15.88;68.03
15263;BME280;7733;51.554;13.590;2023-04-21T08:08:29;100659.91;;;15.86;66.57
15263;BME280;7733;51.554;13.590;2023-04-21T08:10:55;100656.81;;;16.28;66.10
15263;BME280;7733;51.554;13.590;2023-04-21T08:13:21;100660.81;;;16.39;66.26
15263;BME280;7733;51.554;13.590;2023-04-21T08:15:51;100656.13;;;16.74;65.22
15263;BME280;7733;51.554;13.590;2023-04-21T08:18:17;100649.69;;;16.55;64.14
15263;BME280;7733;51.554;13.590;2023-04-21T08:20:44;100660.06;;;16.62;64.04
15263;BME280;7733;51.554;13.590;2023-04-21T08:23:13;100654.44;;;16.71;64.05
15263;BME280;7733;51.554;13.590;2023-04-21T08:25:39;100649.53;;;16.86;62.50
15263;BME280;7733;51.554;13.590;2023-04-21T08:28:05;100647.22;;;17.00;61.79
15263;BME280;7733;51.554;13.590;2023-04-21T08:30:30;100642.81;;;16.76;59.98
15263;BME280;7733;51.554;13.590;2023-04-21T08:32:56;100636.94;;;17.16;60.92
15263;BME280;7733;51.554;13.590;2023-04-21T08:35:23;100641.38;;;17.15;59.57
15263;BME280;7733;51.554;13.590;2023-04-21T08:37:48;100638.34;;;17.49;61.15
15263;BME280;7733;51.554;13.590;2023-04-21T08:40:14;100638.50;;;17.68;59.58
15263;BME280;7733;51.554;13.590;2023-04-21T08:42:41;100638.09;;;17.55;58.00
15263;BME280;7733;51.554;13.590;2023-04-21T08:45:08;100634.44;;;17.58;56.16
15263;BME280;7733;51.554;13.590;2023-04-21T08:47:37;100628.56;;;17.73;55.96
15263;BME280;7733;51.554;13.590;2023-04-21T08:50:03;100630.41;;;18.15;55.03
15263;BME280;7733;51.554;13.590;2023-04-21T08:52:29;100627.72;;;17.94;54.01
15263;BME280;7733;51.554;13.590;2023-04-21T08:54:55;100634.41;;;18.05;55.71
15263;BME280;7733;51.554;13.590;2023-04-21T08:57:21;100632.66;;;18.26;55.66
15263;BME280;7733;51.554;13.590;2023-04-21T08:59:47;100631.22;;;18.17;54.40
15263;BME280;7733;51.554;13.590;2023-04-21T09:02:15;100631.50;;;18.31;54.58
15263;BME280;7733;51.554;13.590;2023-04-21T09:04:48;100631.25;;;18.37;53.77
15263;BME280;7733;51.554;13.590;2023-04-21T09:07:37;100625.94;;;18.58;52.56
15263;BME280;7733;51.554;13.590;2023-04-21T09:10:07;100632.78;;;18.65;52.81
15263;BME280;7733;51.554;13.590;2023-04-21T09:12:32;100624.44;;;18.52;52.45
15263;BME280;7733;51.554;13.590;2023-04-21T09:14:58;100631.28;;;18.78;51.69
15263;BME280;7733;51.554;13.590;2023-04-21T09:17:31;100630.75;;;18.90;50.60
15263;BME280;7733;51.554;13.590;2023-04-21T09:20:16;100629.34;;;19.02;51.37
15263;BME280;7733;51.554;13.590;2023-04-21T09:22:43;100625.34;;;19.12;50.49
15263;BME280;7733;51.554;13.590;2023-04-21T09:25:09;100620.75;;;19.53;50.20
15263;BME280;7733;51.554;13.590;2023-04-21T09:27:36;100624.09;;;19.58;51.87
15263;BME280;7733;51.554;13.590;2023-04-21T09:30:06;100620.84;;;19.33;49.78
15263;BME280;7733;51.554;13.590;2023-04-21T09:32:37;100626.50;;;19.82;50.03
15263;BME280;7733;51.554;13.590;2023-04-21T09:35:05;100610.53;;;20.18;48.68
15263;BME280;7733;51.554;13.590;2023-04-21T09:37:34;100609.41;;;20.41;49.71
15263;BME280;7733;51.554;13.590;2023-04-21T09:40:00;100607.22;;;20.49;48.48
15263;BME280;7733;51.554;13.590;2023-04-21T09:42:31;100606.72;;;20.23;47.05
15263;BME280;7733;51.554;13.590;2023-04-21T09:44:57;100599.78;;;20.19;46.75
15263;BME280;7733;51.554;13.590;2023-04-21T09:47:27;100595.97;;;20.59;47.22
15263;BME280;7733;51.554;13.590;2023-04-21T09:49:54;100589.19;;;20.54;45.96
15263;BME280;7733;51.554;13.590;2023-04-21T09:52:21;100587.69;;;20.65;46.32
15263;BME280;7733;51.554;13.590;2023-04-21T09:54:51;100592.28;;;20.62;44.92
15263;BME280;7733;51.554;13.590;2023-04-21T09:57:25;100585.00;;;20.99;42.98
15263;BME280;7733;51.554;13.590;2023-04-21T10:00:00;100583.81;;;21.37;44.18
15263;BME280;7733;51.554;13.590;2023-04-21T10:02:30;100576.19;;;21.14;43.78
15263;BME280;7733;51.554;13.590;2023-04-21T10:04:57;100572.75;;;21.12;43.10
15263;BME280;7733;51.554;13.590;2023-04-21T10:07:22;100574.56;;;21.11;42.55
15263;BME280;7733;51.554;13.590;2023-04-21T10:09:53;100566.97;;;21.19;42.17
15263;BME280;7733;51.554;13.590;2023-04-21T10:12:21;100563.16;;;21.25;40.46
15263;BME280;7733;51.554;13.590;2023-04-21T10:14:52;100565.22;;;21.51;41.41
15263;BME280;7733;51.554;13.590;2023-04-21T10:17:23;100566.34;;;21.32;38.80
15263;BME280;7733;51.554;13.590;2023-04-21T10:19:58;100568.75;;;21.52;39.77
15263;BME280;7733;51.554;13.590;2023-04-21T10:22:29;100556.53;;;21.64;39.59
15263;BME280;7733;51.554;13.590;2023-04-21T10:24:58;100558.16;;;21.50;40.08
15263;BME280;7733;51.554;13.590;2023-04-21T10:27:50;100543.25;;;21.62;38.56
15263;BME280;7733;51.554;13.590;2023-04-21T10:30:24;100545.91;;;21.78;37.35
15263;BME280;7733;51.554;13.590;2023-04-21T10:33:22;100543.28;;;21.92;38.33
15263;BME280;7733;51.554;13.590;2023-04-21T10:36:01;100554.94;;;21.75;35.85
15263;BME280;7733;51.554;13.590;2023-04-21T10:38:42;100547.72;;;21.62;35.01
15263;BME280;7733;51.554;13.590;2023-04-21T10:41:33;100536.38;;;22.04;35.52
15263;BME280;7733;51.554;13.590;2023-04-21T10:46:50;100532.91;;;22.17;33.46
15263;BME280;7733;51.554;13.590;2023-04-21T10:49:29;100539.41;;;21.82;34.31
15263;BME280;7733;51.554;13.590;2023-04-21T10:57:16;100528.53;;;22.01;33.98
15263;BME280;7733;51.554;13.590;2023-04-21T10:59:45;100516.31;;;21.97;33.95
15263;BME280;7733;51.554;13.590;2023-04-21T11:02:16;100516.88;;;22.17;34.24
15263;BME280;7733;51.554;13.590;2023-04-21T11:04:43;100518.81;;;22.30;34.21
15263;BME280;7733;51.554;13.590;2023-04-21T11:07:20;100507.06;;;21.72;32.54
15263;BME280;7733;51.554;13.590;2023-04-21T11:10:02;100499.69;;;22.22;33.49
15263;BME280;7733;51.554;13.590;2023-04-21T11:12:38;100514.16;;;22.03;33.75
15263;BME280;7733;51.554;13.590;2023-04-21T11:15:13;100506.94;;;22.20;33.45
15263;BME280;7733;51.554;13.590;2023-04-21T11:17:40;100501.78;;;22.16;33.54
15263;BME280;7733;51.554;13.590;2023-04-21T11:20:09;100496.09;;;22.23;33.12
15263;BME280;7733;51.554;13.590;2023-04-21T11:22:36;100490.56;;;22.54;34.30
15263;BME280;7733;51.554;13.590;2023-04-21T11:25:03;100500.63;;;22.06;32.92
15263;BME280;7733;51.554;13.590;2023-04-21T11:27:29;100498.75;;;22.37;33.85
15263;BME280;7733;51.554;13.590;2023-04-21T11:29:56;100492.72;;;22.05;32.84
15263;BME280;7733;51.554;13.590;2023-04-21T11:32:22;100484.41;;;22.09;32.98
15263;BME280;7733;51.554;13.590;2023-04-21T11:34:49;100488.03;;;22.08;33.32
15263;BME280;7733;51.554;13.590;2023-04-21T11:37:23;100488.13;;;22.07;33.23
15263;BME280;7733;51.554;13.590;2023-04-21T11:39:57;100494.19;;;22.25;32.43
15263;BME280;7733;51.554;13.590;2023-04-21T11:42:24;100489.69;;;22.39;32.71
15263;BME280;7733;51.554;13.590;2023-04-21T11:44:55;100478.91;;;22.41;33.30
15263;BME280;7733;51.554;13.590;2023-04-21T11:47:24;100486.28;;;22.94;32.47
15263;BME280;7733;51.554;13.590;2023-04-21T11:49:56;100480.84;;;22.82;32.93
15263;BME280;7733;51.554;13.590;2023-04-21T11:52:31;100483.63;;;22.66;32.38
15263;BME280;7733;51.554;13.590;2023-04-21T11:55:10;100479.88;;;22.68;32.76
15263;BME280;7733;51.554;13.590;2023-04-21T11:57:39;100480.25;;;22.48;31.89
15263;BME280;7733;51.554;13.590;2023-04-21T12:00:08;100483.13;;;22.73;32.54
15263;BME280;7733;51.554;13.590;2023-04-21T12:02:42;100474.69;;;22.80;31.92
15263;BME280;7733;51.554;13.590;2023-04-21T12:05:12;100483.34;;;22.85;32.26
15263;BME280;7733;51.554;13.590;2023-04-21T12:07:43;100473.56;;;22.98;32.39
15263;BME280;7733;51.554;13.590;2023-04-21T12:10:16;100482.72;;;23.08;33.30
15263;BME280;7733;51.554;13.590;2023-04-21T12:12:42;100473.19;;;22.90;31.99
15263;BME280;7733;51.554;13.590;2023-04-21T12:15:10;100466.63;;;23.22;32.53
15263;BME280;7733;51.554;13.590;2023-04-21T12:17:39;100468.00;;;23.01;32.13
15263;BME280;7733;51.554;13.590;2023-04-21T12:20:08;100467.09;;;23.29;31.82
15263;BME280;7733;51.554;13.590;2023-04-21T12:22:34;100466.50;;;23.65;32.17
15263;BME280;7733;51.554;13.590;2023-04-21T12:25:00;100451.06;;;23.15;32.00
15263;BME280;7733;51.554;13.590;2023-04-21T12:27:26;100464.72;;;23.24;31.83
15263;BME280;7733;51.554;13.590;2023-04-21T12:29:52;100459.72;;;23.05;32.05
15263;BME280;7733;51.554;13.590;2023-04-21T12:32:19;100447.72;;;23.25;31.46
15263;BME280;7733;51.554;13.590;2023-04-21T12:34:45;100446.34;;;22.91;31.24
15263;BME280;7733;51.554;13.590;2023-04-21T12:37:11;100446.25;;;23.20;31.47
15263;BME280;7733;51.554;13.590;2023-04-21T12:39:37;100439.09;;;23.47;32.29
15263;BME280;7733;51.554;13.590;2023-04-21T12:42:03;100450.22;;;23.41;31.55
15263;BME280;7733;51.554;13.590;2023-04-21T12:44:28;100441.94;;;23.04;30.98
15263;BME280;7733;51.554;13.590;2023-04-21T12:46:55;100441.19;;;23.29;31.11
15263;BME280;7733;51.554;13.590;2023-04-21T12:49:22;100445.38;;;23.33;30.87
15263;BME280;7733;51.554;13.590;2023-04-21T12:51:48;100437.28;;;23.75;30.32
15263;BME280;7733;51.554;13.590;2023-04-21T12:54:14;100440.19;;;23.84;30.81
15263;BME280;7733;51.554;13.590;2023-04-21T12:56:41;100430.97;;;23.88;31.04
15263;BME280;7733;51.554;13.590;2023-04-21T12:59:09;100435.72;;;23.58;30.35